• Join FlightAware (Why Join?)
  • Login
  • US Flag 
12:03AM EST


 

Airport Tracker/Info


-or-


 

Live Flight TrackerFlight Track Log ✈ KAP5 ✈ 31-Jan-2014 ✈ KALB - KBOS

Flight Track Log - Related Links

Times and Time Zones

All times are in EST time to prevent confusion due to time zone crossing. See the KAP5 flight status page for this flight to view local times or setup timezone preferences in your user account.

Time Position Orientation Groundspeed Altitude Reporting Facility
EST Latitude Longitude Course Direction KTS MPH feet Rate Location/Type
06:55PM 42.7517 -73.7653 77° East 107 123 1,100  Level Boston Center
06:56PM 42.7553 -73.7228 83° East 118 136 1,800 600 Climbing Boston Center
06:56PM 42.7567 -73.7189 64° Northeast 113 130 1,800 660 Level Boston Center
06:57PM 42.7556 -73.6736 92° East 134 154 2,500 780 Climbing Boston Center
06:57PM 42.7572 -73.6658 74° East 127 146 2,600 780 Climbing Boston Center
06:58PM 42.7606 -73.6228 84° East 132 152 3,300 780 Climbing Boston Center
06:58PM 42.7619 -73.6164 74° East 131 151 3,400 600 Climbing Boston Center
06:59PM 42.7625 -73.5661 89° East 133 153 4,000 660 Climbing Boston Center
07:00PM 42.7658 -73.5225 84° East 140 161 4,700 780 Climbing Boston Center
07:00PM 42.7669 -73.5142 80° East 137 158 4,800 900 Climbing Boston Center
07:00PM 42.7703 -73.4744 83° East 134 154 5,500 780 Climbing Boston Center
07:01PM 42.7728 -73.4644 71° East 134 154 5,600 660 Climbing Boston Center
07:02PM 42.7772 -73.4244 81° East 137 158 6,200 720 Climbing Boston Center
07:02PM 42.7789 -73.4092 82° East 136 157 6,400 660 Climbing Boston Center
07:03PM 42.7786 -73.3694 91° East 145 167 6,900 660 Climbing Boston Center
07:03PM 42.7772 -73.3533 97° East 147 169 7,100 540 Climbing Boston Center
07:04PM 42.7692 -73.3139 106° East 154 177 7,500 540 Climbing Boston Center
07:04PM 42.7689 -73.2969 91° East 151 174 7,700 660 Climbing Boston Center
07:05PM 42.7569 -73.2397 106° East 156 180 8,400 600 Climbing Boston Center
07:06PM 42.7478 -73.1761 101° East 159 183 9,000 240 Climbing Boston Center
07:07PM 42.7319 -73.1111 108° East 181 208 9,000  Level Boston Center
07:08PM 42.7178 -73.0378 105° East 198 228 9,000  Level Boston Center
07:09PM 42.7136 -72.9764 95° East 195 224 9,000  Level Boston Center
07:10PM 42.7017 -72.9011 102° East 199 229 9,000  Level Boston Center
07:11PM 42.6844 -72.8133 105° East 199 229 9,000  Level Boston Center
07:12PM 42.6711 -72.7394 104° East 199 229 9,100  Climbing Boston Center
07:13PM 42.6575 -72.6656 104° East 200 230 9,100  Level Boston Center
07:14PM 42.6439 -72.5914 104° East 200 230 9,100  Level Boston Center
07:15PM 42.6306 -72.5175 104° East 201 231 9,100 -60 Level Boston Center
07:16PM 42.6178 -72.4436 103° East 201 231 9,000 -60 Descending Boston Center
07:17PM 42.6047 -72.3703 104° East 200 230 9,000  Level Boston Center
07:18PM 42.5906 -72.2978 105° East 199 229 9,100  Climbing Boston Center
07:19PM 42.5753 -72.2117 104° East 201 231 9,100  Level Boston Center
07:20PM 42.5617 -72.1383 104° East 200 230 9,100  Level Boston Center
07:21PM 42.5481 -72.0664 104° East 198 228 9,100  Level Boston Center
07:22PM 42.5453 -71.9906 93° East 203 234 9,100  Level Boston Center
07:23PM 42.5383 -71.9100 97° East 201 231 9,100  Level Boston Center
07:24PM 42.5250 -71.8378 104° East 199 229 9,100 -60 Level Boston Center
07:25PM 42.5164 -71.7628 99° East 202 232 9,000 -60 Descending Boston Center
07:26PM 42.5117 -71.6886 95° East 201 231 9,000  Level Boston Center
07:27PM 42.5075 -71.6086 94° East 199 229 9,000 -240 Level Boston Center
07:28PM 42.5167 -71.5667 73° East 207 238 8,700 -720 Descending KA90
07:29PM 42.5333 -71.4833 75° East 230 265 7,900 -900 Descending KA90
07:30PM 42.5500 -71.4000 75° East 233 268 7,000 -840 Descending KA90
07:31PM 42.5500 -71.3167 90° East 225 259 6,300 -780 Descending KA90
07:32PM 42.5500 -71.2333 90° East 223 257 5,500 -840 Descending KA90
07:33PM 42.5333 -71.1667 109° East 218 251 4,800 -840 Descending KA90
07:34PM 42.5000 -71.1000 124° Southeast 199 229 3,900 -960 Descending KA90
07:35PM 42.4667 -71.0333 124° Southeast 195 224 2,800 -1,200 Descending KA90
07:36PM 42.4333 -71.0000 144° Southeast 181 208 1,500 -1,200 Descending KA90
07:37PM 42.3833 -70.9833 166° South 138 159 500 -1,020 Descending KA90
07:39PM 42.3630 -71.0064 204° Southwest  Level Estimated
07:46PM 42.3630 -71.0064 204° Southwest  Level Estimated